Bookmark and Share
Track history (hours):
 

Drifting buoy 43533

Last reported at 2014-Apr-24 05:00 UTC. Time now 2014-Apr-24 06:04 UTC.
Position N 13°36' W 099°39'.

Length 24 m.

Type: Fishing. MMSI: 412466549.

Water temperature 30.4 ° C

NotesDate/timePositionNaut miles runAvg speedWind from/ knotsBaromVisibWave heightAir tempDewpointWater temp
2014-Apr-24 05:00N 13°36' W 099°39'0 0.4 30.4
2014-Apr-24 04:00N 13°36' W 099°39'1 1.1 30.5
2014-Apr-24 03:00N 13°35' W 099°39'5 0.8 30.5
2014-Apr-23 21:00N 13°30' W 099°38'1 0.4 31.4
2014-Apr-23 17:00N 13°29' W 099°38'0 0.3 30.6
2014-Apr-23 16:00N 13°28' W 099°38'1 1.2 30.4
2014-Apr-23 15:00N 13°27' W 099°38'0 0.0 30.0
2014-Apr-23 12:00N 13°27' W 099°38'2 0.9 29.8
2014-Apr-23 10:00N 13°25' W 099°37'2 0.8 29.9
2014-Apr-23 08:00N 13°24' W 099°36'2 1.7 30.0
2014-Apr-23 07:00N 13°25' W 099°37'2 1.0 30.0
2014-Apr-23 05:00N 13°23' W 099°37'0 0.0 30.1
2014-Apr-23 04:00N 13°23' W 099°37'0 0.2 30.1
2014-Apr-23 03:00N 13°23' W 099°37'1 0.5 30.2
2014-Apr-23 02:00N 13°23' W 099°36'1 0.5 30.4
2014-Apr-23 00:00N 13°22' W 099°36'3 0.9 30.6
2014-Apr-22 21:00N 13°19' W 099°36'2 1.5 31.2
2014-Apr-22 20:00N 13°18' W 099°34'1 0.2 30.7
2014-Apr-22 17:00N 13°18' W 099°34'1 0.5 30.1
2014-Apr-22 16:00N 13°18' W 099°34'0 0.0 29.9
2014-Apr-22 15:00N 13°18' W 099°34'1 0.5 29.7
2014-Apr-22 12:00N 13°17' W 099°34'1 0.6 29.7
2014-Apr-22 11:00N 13°17' W 099°34'1 1.0 29.7
2014-Apr-22 10:00N 13°16' W 099°34'1 0.9 29.7
2014-Apr-22 09:00N 13°16' W 099°33'2 2.0 29.7
2014-Apr-22 08:00N 13°15' W 099°31'0 0.0 29.7
2014-Apr-22 05:00N 13°15' W 099°31'1 1.4 29.8
2014-Apr-22 04:00N 13°15' W 099°32'0 0.2 29.8
2014-Apr-22 03:00N 13°15' W 099°32'0 0.1 29.8
2014-Apr-22 00:00N 13°15' W 099°32'1 0.7 30.1
2014-Apr-21 23:00N 13°14' W 099°31'2 1.1 30.1
2014-Apr-21 21:00N 13°13' W 099°29'0 0.0 30.2
2014-Apr-21 20:00N 13°13' W 099°29'1 0.2 30.2
2014-Apr-21 16:00N 13°13' W 099°29'0 0.0 29.6
2014-Apr-21 15:00N 13°13' W 099°29'1 0.9 29.5
2014-Apr-21 14:00N 13°12' W 099°29'0 0.4 29.5
2014-Apr-21 13:00N 13°12' W 099°28'0 0.1 29.5
2014-Apr-21 12:00N 13°12' W 099°28'1 0.3 29.5
2014-Apr-21 09:00N 13°12' W 099°27'1 0.7 29.6
2014-Apr-21 07:00N 13°11' W 099°27'1 1.3 29.7
2014-Apr-21 06:00N 13°12' W 099°27'1 1.3 29.7
2014-Apr-21 05:00N 13°11' W 099°27'2 0.8 29.7
2014-Apr-21 03:00N 13°11' W 099°25'0 0.0 29.8
2014-Apr-21 02:00N 13°11' W 099°25'1 1.0 29.8
2014-Apr-21 01:00N 13°10' W 099°25'1 0.2 29.9
2014-Apr-20 22:00N 13°10' W 099°25'1 1.1 30.0
2014-Apr-20 21:00N 13°10' W 099°24'1 0.7 30.0
2014-Apr-20 20:00N 13°09' W 099°23'1 0.2 30.0
2014-Apr-20 17:00N 13°10' W 099°23'1 0.6 29.8
2014-Apr-20 16:00N 13°09' W 099°23'0 0.0 29.7
2014-Apr-20 15:00N 13°09' W 099°23'0 0.0 29.6
2014-Apr-20 14:00N 13°09' W 099°23'1 0.7 29.6
2014-Apr-20 12:00N 13°09' W 099°21'0 0.1 29.6
2014-Apr-20 10:00N 13°09' W 099°21'0 0.4 29.6
2014-Apr-20 09:00N 13°09' W 099°21'0 0.1 29.7
2014-Apr-20 07:00N 13°09' W 099°21'1 0.3 29.7
2014-Apr-20 04:00N 13°08' W 099°21'0 0.3 30.0
2014-Apr-20 03:00N 13°07' W 099°21'1 1.3 30.1
2014-Apr-20 02:00N 13°06' W 099°20'0 0.0 30.2
2014-Apr-20 01:00N 13°06' W 099°20'2 0.6 30.3
2014-Apr-19 22:00N 13°05' W 099°19'1 0.3 30.6
2014-Apr-19 19:00N 13°05' W 099°18'0 0.0 30.4
2014-Apr-19 18:00N 13°05' W 099°18'1 0.7 30.1
2014-Apr-19 16:00N 13°03' W 099°18'4 0.6 29.8
2014-Apr-19 09:00N 13°01' W 099°15'0 0.0 29.6
2014-Apr-19 08:00N 13°01' W 099°15'1 0.7 29.6
2014-Apr-19 07:00N 12°60' W 099°14'0 0.2 29.6
2014-Apr-19 05:00N 13°00' W 099°14'0 0.2 29.6
2014-Apr-19 03:00N 13°00' W 099°14'3 0.6 29.6
2014-Apr-18 22:00N 12°58' W 099°12'1 0.3 30.0
2014-Apr-18 19:00N 12°57' W 099°12'0 0.1 29.8
2014-Apr-18 17:00N 12°57' W 099°12'1 0.8 29.5
2014-Apr-18 16:00N 12°56' W 099°12'2 0.7 29.5
2014-Apr-18 13:00N 12°55' W 099°11'0 0.1 29.4
2014-Apr-18 09:00N 12°54' W 099°11'1 0.7 29.4
2014-Apr-18 07:00N 12°53' W 099°11'1 0.1 29.4
2014-Apr-18 03:00N 12°52' W 099°10'1 1.1 29.4
2014-Apr-18 02:00N 12°51' W 099°10'1 0.3 29.4
2014-Apr-18 00:00N 12°51' W 099°09'1 0.6 29.5
2014-Apr-17 22:00N 12°50' W 099°09'1 0.3 29.6
2014-Apr-17 20:00N 12°50' W 099°09'1 0.9 29.6
2014-Apr-17 19:00N 12°49' W 099°09'0 0.2 29.5
2014-Apr-17 17:00N 12°48' W 099°09'2 0.7 29.3
2014-Apr-17 14:00N 12°46' W 099°09'0 0.0 29.2
2014-Apr-17 13:00N 12°46' W 099°09'0 0.0 29.2
2014-Apr-17 12:00N 12°46' W 099°09'0 0.5 29.2
2014-Apr-17 11:00N 12°46' W 099°08'1 0.7 29.2
2014-Apr-17 09:00N 12°45' W 099°08'2 1.7 29.2
2014-Apr-17 08:00N 12°43' W 099°08'0 0.1 29.2
2014-Apr-17 05:00N 12°43' W 099°08'0 0.3 29.3
2014-Apr-17 04:00N 12°42' W 099°08'1 1.0 29.3
2014-Apr-17 03:00N 12°41' W 099°08'1 0.9 29.3
2014-Apr-17 02:00N 12°41' W 099°08'2 1.0 29.3
2014-Apr-17 00:00N 12°40' W 099°06'2 0.7 29.4
2014-Apr-16 21:00N 12°38' W 099°06'2 0.5 29.4
2014-Apr-16 17:00N 12°36' W 099°05'1 1.2 29.3
2014-Apr-16 16:00N 12°35' W 099°05'0 0.1 29.3
2014-Apr-16 15:00N 12°35' W 099°05'4 1.0 29.3
2014-Apr-16 11:00N 12°32' W 099°03'0 0.0 29.5
2014-Apr-16 10:00N 12°32' W 099°03'0 0.0 29.5
2014-Apr-16 09:00N 12°32' W 099°03'2 0.4 29.5
2014-Apr-16 04:00N 12°29' W 099°03'1 1.3 29.6
2014-Apr-16 03:00N 12°29' W 099°02'1 0.7 29.7
2014-Apr-16 02:00N 12°29' W 099°02'1 0.3 29.8
2014-Apr-16 00:00N 12°28' W 099°01'1 0.9 30.1
2014-Apr-15 23:00N 12°28' W 099°00'1 0.5 30.2
2014-Apr-15 21:00N 12°27' W 099°01'2 0.8 30.5
2014-Apr-15 19:00N 12°26' W 099°01'1 0.3 30.2
2014-Apr-15 16:00N 12°25' W 099°01'1 0.4 30.0
2014-Apr-15 13:00N 12°23' W 099°01'2 0.8 29.6
2014-Apr-15 11:00N 12°22' W 099°00'0 0.0 29.6
2014-Apr-15 10:00N 12°22' W 099°00'3 1.7 29.6
2014-Apr-15 08:00N 12°19' W 099°01'3 2.7 29.9
2014-Apr-15 07:00N 12°21' W 099°01'3 1.1 30.1
2014-Apr-15 04:00N 12°18' W 099°01'1 0.6 29.8
2014-Apr-15 03:00N 12°18' W 099°01'2 0.7 30.1
2014-Apr-15 00:00N 12°15' W 099°00'1 0.9 31.5
2014-Apr-14 23:00N 12°15' W 098°60'0 0.4 32.0
2014-Apr-14 22:00N 12°14' W 099°00'2 2.0 32.1
2014-Apr-14 21:00N 12°12' W 098°60'0 0.0 32.0
2014-Apr-14 20:00N 12°12' W 098°60'2 0.5 32.0
2014-Apr-14 16:00N 12°10' W 098°59'2 1.7 29.4
2014-Apr-14 15:00N 12°09' W 098°59'0 0.0 29.2
2014-Apr-14 13:00N 12°09' W 098°59'1 0.6 29.1
2014-Apr-14 11:00N 12°08' W 098°58'0 0.3 29.2
2014-Apr-14 10:00N 12°08' W 098°58'2 0.9 29.2
2014-Apr-14 08:00N 12°07' W 098°56'1 0.4 29.3
2014-Apr-14 05:00N 12°06' W 098°57'   29.3

Dump ship's entire track history

sailing weather and tide predictions

Buoy 43533